A03 weather

Langley Park Airstrip
Perth, Western Australia, Australia

Public forecast

Using degrees Celsius for public forecast. Weather courtesy of forecast.io.

Closest aviation weather report (METAR) to Langley Park Airstrip

Closest report is Perth International Airport, 5.2 nm (9.6 km) ENE. Retrieved 2019/12/09 07:30 UTC (29 minutes ago):

YPPH 090730Z 24016KT CAVOK 28/12 Q1018 NOSIG

Closest aviation forecast (TAF) to Langley Park Airstrip

Closest forecast is Perth International Airport, 5.2 nm (9.6 km) ENE. Retrieved 2019/12/09 06:00 UTC (2 hours ago):

TAF YPPH 090501Z 0906/1012 22018KT CAVOK FM091400 17012KT CAVOK FM091900 11014KT CAVOK BECMG 1004/1006 22016KT CAVOK FM101100 18012KT CAVOK